createdAt,value
2022-09-16T00:01:33.073Z,15.84
2022-09-16T00:04:01.401Z,15.86
2022-09-16T00:06:31.849Z,15.76
2022-09-16T00:09:02.418Z,15.78
2022-09-16T00:11:35.248Z,15.77
2022-09-16T00:14:04.765Z,15.84
2022-09-16T00:16:33.281Z,15.81
2022-09-16T00:19:03.231Z,16.00
2022-09-16T00:21:32.521Z,16.00
2022-09-16T00:24:02.889Z,15.86
2022-09-16T00:26:31.339Z,15.85
2022-09-16T00:28:59.748Z,15.79
2022-09-16T00:31:28.194Z,15.77
2022-09-16T00:33:56.593Z,15.74
2022-09-16T00:36:24.944Z,15.66
2022-09-16T00:38:55.560Z,15.76
2022-09-16T00:41:28.069Z,15.79
2022-09-16T00:43:59.743Z,15.93
2022-09-16T00:46:37.822Z,15.71
2022-09-16T00:49:13.843Z,15.70
2022-09-16T00:51:44.032Z,15.63
2022-09-16T00:54:13.319Z,15.63
2022-09-16T00:56:46.434Z,15.61
2022-09-16T00:59:19.253Z,15.60
2022-09-16T01:01:49.685Z,15.55
2022-09-16T01:04:21.926Z,15.70
2022-09-16T01:06:50.830Z,15.57
2022-09-16T01:09:20.932Z,15.47
2022-09-16T01:11:50.701Z,15.55
2022-09-16T01:14:37.765Z,15.54
2022-09-16T01:17:16.018Z,15.45
2022-09-16T01:20:17.779Z,15.48
2022-09-16T01:23:08.365Z,15.45
2022-09-16T01:25:54.442Z,15.54
2022-09-16T01:28:48.877Z,15.37
2022-09-16T01:31:23.688Z,15.40
2022-09-16T01:34:05.231Z,15.43
2022-09-16T01:36:44.898Z,15.42
2022-09-16T01:39:30.079Z,15.34
2022-09-16T01:42:19.772Z,15.46
2022-09-16T01:44:58.401Z,15.57
2022-09-16T01:47:37.794Z,15.37
2022-09-16T01:50:16.329Z,15.29
2022-09-16T01:52:54.128Z,15.44
2022-09-16T01:55:29.715Z,15.29
2022-09-16T01:58:03.141Z,15.43
2022-09-16T02:00:32.624Z,15.40
2022-09-16T02:03:07.630Z,15.32
2022-09-16T02:05:41.957Z,15.28
2022-09-16T02:08:14.817Z,15.21
2022-09-16T02:10:48.893Z,15.47
2022-09-16T02:13:24.729Z,15.27
2022-09-16T02:15:56.458Z,15.16
2022-09-16T02:18:31.688Z,15.19
2022-09-16T02:21:03.789Z,15.18
2022-09-16T02:23:37.349Z,15.07
2022-09-16T02:26:07.913Z,15.18
2022-09-16T02:28:41.248Z,15.16
2022-09-16T02:31:11.540Z,15.23
2022-09-16T02:33:47.326Z,15.35
2022-09-16T02:36:22.127Z,15.33
2022-09-16T02:38:55.669Z,15.32
2022-09-16T02:41:24.747Z,15.41
2022-09-16T02:43:53.095Z,15.26
2022-09-16T02:46:29.593Z,15.30
2022-09-16T02:49:07.393Z,15.32
2022-09-16T02:51:46.141Z,15.37
2022-09-16T02:54:24.995Z,15.16
2022-09-16T02:56:55.739Z,15.15
2022-09-16T02:59:25.391Z,15.02
2022-09-16T03:01:53.781Z,15.08
2022-09-16T03:04:23.554Z,15.07
2022-09-16T03:06:51.987Z,14.91
2022-09-16T03:09:23.954Z,14.94
2022-09-16T03:12:36.142Z,15.00
2022-09-16T03:15:35.323Z,14.97
2022-09-16T03:18:41.997Z,14.99
2022-09-16T03:21:19.014Z,14.86
2022-09-16T03:24:06.024Z,14.96
2022-09-16T03:26:42.328Z,15.00
2022-09-16T03:29:19.835Z,14.86
2022-09-16T03:31:56.331Z,14.91
2022-09-16T03:34:28.876Z,14.96
2022-09-16T03:37:04.550Z,14.85
2022-09-16T03:39:33.981Z,14.89
2022-09-16T03:42:04.005Z,14.90
2022-09-16T03:44:34.611Z,14.77
2022-09-16T03:47:03.375Z,14.71
2022-09-16T03:49:31.689Z,14.76
2022-09-16T03:52:01.782Z,14.87
2022-09-16T03:54:30.069Z,14.86
2022-09-16T03:56:58.363Z,14.75
2022-09-16T03:59:26.643Z,14.85
2022-09-16T04:01:55.303Z,14.72
2022-09-16T04:04:23.717Z,14.81
2022-09-16T04:06:51.988Z,14.79
2022-09-16T04:09:21.695Z,14.75
2022-09-16T04:11:49.995Z,14.73
2022-09-16T04:14:18.613Z,14.77
2022-09-16T04:16:46.921Z,14.76
2022-09-16T04:19:15.895Z,14.85
2022-09-16T04:21:44.730Z,14.77
2022-09-16T04:24:13.614Z,14.84
2022-09-16T04:26:43.727Z,14.73
2022-09-16T04:29:12.281Z,14.72
2022-09-16T04:31:40.601Z,14.79
2022-09-16T04:34:08.911Z,14.63
2022-09-16T04:36:37.211Z,14.64
2022-09-16T04:39:06.032Z,14.72
2022-09-16T04:41:34.567Z,14.71
2022-09-16T04:44:04.374Z,14.65
2022-09-16T04:46:33.677Z,14.69
2022-09-16T04:49:02.127Z,14.62
2022-09-16T04:51:32.217Z,14.71
2022-09-16T04:54:01.686Z,14.66
2022-09-16T04:56:33.125Z,14.68
2022-09-16T04:59:05.206Z,14.60
2022-09-16T05:01:35.977Z,14.58
2022-09-16T05:04:07.505Z,14.62
2022-09-16T05:06:38.430Z,14.66
2022-09-16T05:09:07.668Z,14.63
2022-09-16T05:11:38.760Z,14.63
2022-09-16T05:14:11.843Z,14.53
2022-09-16T05:16:40.143Z,14.52
2022-09-16T05:19:09.158Z,14.50
2022-09-16T05:21:39.088Z,14.52
2022-09-16T05:24:09.924Z,14.45
2022-09-16T05:26:40.522Z,14.45
2022-09-16T05:29:13.553Z,14.44
2022-09-16T05:31:46.083Z,14.46
2022-09-16T05:34:17.759Z,14.38
2022-09-16T05:36:47.810Z,14.39
2022-09-16T05:39:23.174Z,14.36
2022-09-16T05:41:55.629Z,14.46
2022-09-16T05:44:26.015Z,14.51
2022-09-16T05:46:54.830Z,14.50
2022-09-16T05:49:23.828Z,14.53
2022-09-16T05:51:53.318Z,14.54
2022-09-16T05:54:25.120Z,14.66
2022-09-16T05:56:54.036Z,14.55
2022-09-16T05:59:24.104Z,14.66
2022-09-16T06:01:52.513Z,14.62
2022-09-16T06:04:20.871Z,14.65
2022-09-16T06:06:49.206Z,14.76
2022-09-16T06:09:21.836Z,14.63
2022-09-16T06:11:56.584Z,14.59
2022-09-16T06:14:30.617Z,14.69
2022-09-16T06:16:58.980Z,14.66
2022-09-16T06:19:27.370Z,14.69
2022-09-16T06:21:55.800Z,14.77
2022-09-16T06:24:24.369Z,14.80
2022-09-16T06:26:53.114Z,14.96
2022-09-16T06:29:21.393Z,14.96
2022-09-16T06:31:51.022Z,15.10
2022-09-16T06:34:19.622Z,15.11
2022-09-16T06:36:48.248Z,15.08
2022-09-16T06:39:18.307Z,15.13
2022-09-16T06:41:46.957Z,15.17
2022-09-16T06:44:15.515Z,15.17
2022-09-16T06:46:44.260Z,15.23
2022-09-16T06:49:14.081Z,15.25
2022-09-16T06:51:42.395Z,15.26
2022-09-16T06:54:13.028Z,15.27
2022-09-16T06:56:41.637Z,15.33
2022-09-16T06:59:11.397Z,15.29
2022-09-16T07:01:39.804Z,15.36
2022-09-16T07:04:13.267Z,15.41
2022-09-16T07:07:09.242Z,15.41
2022-09-16T07:09:32.603Z,15.48
2022-09-16T07:12:01.498Z,15.38
2022-09-16T07:14:32.534Z,15.66
2022-09-16T07:17:01.546Z,15.49
2022-09-16T07:19:30.291Z,15.59
2022-09-16T07:22:00.006Z,15.97
2022-09-16T07:24:28.370Z,16.11
2022-09-16T07:26:56.701Z,16.34
2022-09-16T07:29:25.228Z,16.27
2022-09-16T07:31:53.573Z,16.22
2022-09-16T07:34:21.872Z,16.51
2022-09-16T07:36:51.092Z,17.79
2022-09-16T07:39:21.367Z,18.40
2022-09-16T07:41:50.088Z,19.32
2022-09-16T07:44:20.983Z,19.88
2022-09-16T07:46:51.237Z,20.16
2022-09-16T07:49:19.983Z,20.24
2022-09-16T07:51:48.633Z,20.23
2022-09-16T07:54:21.527Z,19.57
2022-09-16T07:56:50.041Z,19.88
2022-09-16T07:59:20.421Z,20.51
2022-09-16T08:01:50.652Z,18.99
2022-09-16T08:04:20.697Z,18.73
2022-09-16T08:06:49.658Z,18.87
2022-09-16T08:12:10.758Z,19.84
2022-09-16T08:14:39.298Z,19.76
2022-09-16T08:17:08.071Z,20.54
2022-09-16T08:19:38.436Z,20.81
2022-09-16T08:22:07.004Z,20.63
2022-09-16T08:24:35.688Z,20.58
2022-09-16T08:27:04.791Z,20.30
2022-09-16T08:29:34.637Z,20.20
2022-09-16T08:32:03.839Z,20.33
2022-09-16T08:34:32.175Z,19.64
2022-09-16T08:37:00.433Z,18.95
2022-09-16T08:39:28.714Z,19.18
2022-09-16T08:42:30.945Z,19.46
2022-09-16T08:45:20.716Z,19.32
2022-09-16T08:48:08.091Z,19.34
2022-09-16T08:50:42.533Z,19.21
2022-09-16T08:53:18.518Z,18.56
2022-09-16T08:55:50.219Z,18.47
2022-09-16T08:58:21.766Z,19.01
2022-09-16T09:00:58.025Z,19.47
2022-09-16T09:03:37.722Z,19.96
2022-09-16T09:06:16.281Z,20.67
2022-09-16T09:09:01.352Z,20.60
2022-09-16T09:11:36.733Z,20.95
2022-09-16T09:14:23.121Z,21.48
2022-09-16T09:17:00.440Z,21.28
2022-09-16T09:19:42.803Z,21.53
2022-09-16T09:22:25.158Z,21.20
2022-09-16T09:25:15.030Z,20.59
2022-09-16T09:27:55.397Z,20.17
2022-09-16T09:30:26.733Z,21.18
2022-09-16T09:33:44.897Z,20.59
2022-09-16T09:36:41.497Z,19.77
2022-09-16T09:39:32.508Z,18.83
2022-09-16T09:42:07.409Z,18.56
2022-09-16T09:44:49.909Z,18.66
2022-09-16T09:47:24.876Z,18.63
2022-09-16T09:49:58.563Z,18.79
2022-09-16T09:52:33.988Z,19.11
2022-09-16T09:55:17.473Z,19.16
2022-09-16T09:58:12.497Z,19.00
2022-09-16T10:00:41.424Z,18.77
2022-09-16T10:03:14.516Z,18.73
2022-09-16T10:05:46.161Z,18.75
2022-09-16T10:08:25.678Z,18.46
2022-09-16T10:10:56.631Z,18.43
2022-09-16T10:13:27.835Z,18.28
2022-09-16T10:16:10.675Z,17.99
2022-09-16T10:18:39.867Z,18.02
2022-09-16T10:21:13.294Z,17.78
2022-09-16T10:23:42.019Z,17.57
2022-09-16T10:26:24.211Z,17.85
2022-09-16T10:29:02.574Z,17.57
2022-09-16T10:31:37.761Z,17.67
2022-09-16T10:34:18.396Z,17.71
2022-09-16T10:36:48.556Z,17.64
2022-09-16T10:39:26.513Z,17.47
2022-09-16T10:41:55.508Z,17.56
2022-09-16T10:44:27.773Z,17.63
2022-09-16T10:47:00.374Z,17.38
2022-09-16T10:49:39.947Z,17.46
2022-09-16T10:52:17.613Z,17.39
2022-09-16T10:54:46.679Z,17.54
2022-09-16T10:57:26.399Z,17.51
2022-09-16T11:00:08.966Z,17.44
2022-09-16T11:03:16.214Z,17.40
2022-09-16T11:06:03.163Z,17.60
2022-09-16T11:08:49.575Z,17.66
2022-09-16T11:11:34.792Z,17.81
2022-09-16T11:14:14.865Z,18.78
2022-09-16T11:17:26.128Z,19.70
2022-09-16T11:20:21.368Z,19.63
2022-09-16T11:23:01.976Z,19.15
2022-09-16T11:25:45.691Z,18.78
2022-09-16T11:28:58.462Z,18.60
2022-09-16T11:31:41.966Z,18.43
2022-09-16T11:34:25.033Z,18.17
2022-09-16T11:37:07.984Z,18.39
2022-09-16T11:40:04.122Z,18.40
2022-09-16T11:42:39.312Z,18.53
2022-09-16T11:45:26.075Z,18.55
2022-09-16T11:48:29.115Z,18.32
2022-09-16T11:51:09.138Z,18.14
2022-09-16T11:53:59.399Z,17.73
2022-09-16T11:56:37.569Z,17.20
2022-09-16T11:59:20.028Z,16.50
2022-09-16T12:01:53.606Z,16.00
2022-09-16T12:04:28.629Z,16.01
2022-09-16T12:07:03.939Z,15.80
2022-09-16T12:09:42.347Z,15.73
2022-09-16T12:12:18.470Z,15.35
2022-09-16T12:14:56.490Z,15.34
2022-09-16T12:17:29.590Z,15.59
2022-09-16T12:20:02.635Z,15.35
2022-09-16T12:22:35.826Z,15.47
2022-09-16T12:25:12.819Z,15.52
2022-09-16T12:27:49.433Z,15.40
2022-09-16T12:30:25.525Z,15.65
2022-09-16T12:33:02.474Z,15.47
2022-09-16T12:35:35.707Z,16.02
2022-09-16T12:38:04.642Z,16.26
2022-09-16T12:40:43.326Z,16.44
2022-09-16T12:44:06.398Z,16.21
2022-09-16T12:47:37.817Z,16.35
2022-09-16T12:50:47.095Z,16.72
2022-09-16T12:53:49.384Z,16.51
2022-09-16T12:56:35.142Z,16.79
2022-09-16T12:59:44.707Z,16.83
2022-09-16T13:02:19.304Z,16.90
2022-09-16T13:04:52.212Z,17.01
2022-09-16T13:07:25.414Z,17.16
2022-09-16T13:10:05.026Z,17.26
2022-09-16T13:12:42.842Z,17.34
2022-09-16T13:15:27.653Z,17.32
2022-09-16T13:18:09.307Z,17.34
2022-09-16T13:20:42.262Z,17.41
2022-09-16T13:23:18.233Z,17.48
2022-09-16T13:25:52.267Z,17.48
2022-09-16T13:28:28.201Z,17.63
2022-09-16T13:30:56.785Z,17.61
2022-09-16T13:33:30.726Z,17.84
2022-09-16T13:36:33.218Z,17.95
2022-09-16T13:39:04.164Z,17.88
2022-09-16T13:41:37.141Z,17.90
2022-09-16T13:44:41.509Z,17.93
2022-09-16T13:47:19.525Z,17.80
2022-09-16T13:49:52.897Z,17.60
2022-09-16T13:52:25.860Z,17.69
2022-09-16T13:55:12.620Z,17.72
2022-09-16T13:57:58.916Z,17.58
2022-09-16T14:00:33.858Z,17.50
2022-09-16T14:03:37.378Z,17.23
2022-09-16T14:06:20.331Z,17.24
2022-09-16T14:08:59.941Z,17.16
2022-09-16T14:11:36.199Z,17.33
2022-09-16T14:14:15.715Z,17.20
2022-09-16T14:16:53.856Z,17.20
2022-09-16T14:19:27.860Z,17.16
2022-09-16T14:22:06.727Z,17.04
2022-09-16T14:24:38.346Z,17.10
2022-09-16T14:27:19.234Z,17.10
2022-09-16T14:30:00.009Z,17.03
2022-09-16T14:32:32.308Z,17.14
2022-09-16T14:35:05.650Z,17.42
2022-09-16T14:37:35.978Z,17.63
2022-09-16T14:40:11.346Z,17.63
2022-09-16T14:42:41.229Z,17.70
2022-09-16T14:45:16.630Z,17.80
2022-09-16T14:47:51.780Z,17.83
2022-09-16T14:50:23.845Z,17.74
2022-09-16T14:52:59.478Z,17.59
2022-09-16T14:55:31.160Z,17.65
2022-09-16T14:58:00.487Z,17.52
2022-09-16T15:00:32.821Z,17.61
2022-09-16T15:03:06.728Z,17.68
2022-09-16T15:05:36.665Z,17.71
2022-09-16T15:08:17.056Z,17.68
2022-09-16T15:10:52.783Z,17.64
2022-09-16T15:13:25.315Z,17.77
2022-09-16T15:15:57.367Z,17.85
2022-09-16T15:18:29.659Z,17.94
2022-09-16T15:21:07.314Z,17.63
2022-09-16T15:23:39.831Z,17.72
2022-09-16T15:26:15.667Z,17.18
2022-09-16T15:28:57.032Z,16.67
2022-09-16T15:31:44.786Z,16.50
2022-09-16T15:34:24.249Z,16.41
2022-09-16T15:37:02.034Z,16.06
2022-09-16T15:39:34.686Z,15.94
2022-09-16T15:42:13.982Z,15.74
2022-09-16T15:44:48.848Z,15.69
2022-09-16T15:47:21.899Z,15.82
2022-09-16T15:49:54.041Z,15.59
2022-09-16T15:52:23.251Z,15.48
2022-09-16T15:54:58.199Z,15.44
2022-09-16T15:57:32.679Z,15.42
2022-09-16T16:00:09.355Z,15.51
2022-09-16T16:02:45.044Z,15.05
2022-09-16T16:05:16.810Z,15.02
2022-09-16T16:07:48.866Z,15.07
2022-09-16T16:10:21.046Z,14.89
2022-09-16T16:12:50.416Z,15.12
2022-09-16T16:15:21.072Z,14.85
2022-09-16T16:17:49.962Z,14.77
2022-09-16T16:20:19.753Z,14.72
2022-09-16T16:22:48.833Z,14.98
2022-09-16T16:25:18.932Z,15.15
2022-09-16T16:27:47.369Z,14.90
2022-09-16T16:30:15.899Z,14.97
2022-09-16T16:32:44.432Z,15.22
2022-09-16T16:35:13.057Z,15.36
2022-09-16T16:37:46.329Z,15.39
2022-09-16T16:40:16.125Z,15.56
2022-09-16T16:42:45.923Z,15.30
2022-09-16T16:45:14.821Z,15.48
2022-09-16T16:47:44.068Z,15.31
2022-09-16T16:50:13.017Z,15.23
2022-09-16T16:52:41.612Z,15.02
2022-09-16T16:55:10.901Z,14.83
2022-09-16T16:57:39.242Z,15.04
2022-09-16T17:00:11.112Z,14.81
2022-09-16T17:02:39.668Z,14.75
2022-09-16T17:05:09.092Z,14.98
2022-09-16T17:07:37.433Z,14.90
2022-09-16T17:10:06.208Z,14.75
2022-09-16T17:12:34.555Z,14.79
2022-09-16T17:15:03.350Z,14.57
2022-09-16T17:17:33.030Z,14.57
2022-09-16T17:20:01.349Z,14.51
2022-09-16T17:22:29.661Z,14.48
2022-09-16T17:24:57.991Z,14.47
2022-09-16T17:27:27.786Z,14.38
2022-09-16T17:29:56.298Z,14.27
2022-09-16T17:32:25.104Z,14.45
2022-09-16T17:34:54.822Z,14.32
2022-09-16T17:37:23.168Z,14.34
2022-09-16T17:39:51.890Z,14.29
2022-09-16T17:42:20.581Z,14.28
2022-09-16T17:44:48.952Z,14.22
2022-09-16T17:47:17.255Z,14.21
2022-09-16T17:49:45.560Z,14.16
2022-09-16T17:52:15.286Z,14.02
2022-09-16T17:54:43.583Z,14.11
2022-09-16T17:57:11.900Z,14.09
2022-09-16T17:59:40.330Z,13.97
2022-09-16T18:02:12.085Z,14.02
2022-09-16T18:04:43.001Z,13.85
2022-09-16T18:07:11.749Z,13.84
2022-09-16T18:09:42.032Z,13.86
2022-09-16T18:12:10.680Z,13.66
2022-09-16T18:14:39.105Z,13.72
2022-09-16T18:17:07.530Z,13.69
2022-09-16T18:19:35.959Z,13.68
2022-09-16T18:22:04.867Z,13.73
2022-09-16T18:24:33.328Z,13.67
2022-09-16T18:27:03.101Z,13.68
2022-09-16T18:29:31.540Z,13.58
2022-09-16T18:32:00.323Z,13.60
2022-09-16T18:34:32.776Z,13.63
2022-09-16T18:37:02.068Z,13.53
2022-09-16T18:39:30.494Z,13.50
2022-09-16T18:41:58.876Z,13.49
2022-09-16T18:44:28.975Z,13.46
2022-09-16T18:46:57.363Z,13.50
2022-09-16T18:49:27.123Z,13.45
2022-09-16T18:51:55.862Z,13.44
2022-09-16T18:54:28.611Z,13.48
2022-09-16T18:56:59.080Z,13.52
2022-09-16T18:59:31.492Z,13.31
2022-09-16T19:02:02.653Z,13.37
2022-09-16T19:04:33.718Z,13.32
2022-09-16T19:07:07.988Z,13.37
2022-09-16T19:09:39.785Z,13.21
2022-09-16T19:12:11.583Z,13.21
2022-09-16T19:14:42.242Z,13.18
2022-09-16T19:17:10.911Z,13.23
2022-09-16T19:19:39.234Z,13.12
2022-09-16T19:22:07.700Z,13.14
2022-09-16T19:24:37.194Z,13.05
2022-09-16T19:27:06.002Z,13.00
2022-09-16T19:29:37.234Z,13.08
2022-09-16T19:32:07.444Z,13.05
2022-09-16T19:34:36.124Z,12.93
2022-09-16T19:37:06.707Z,12.89
2022-09-16T19:39:36.747Z,12.91
2022-09-16T19:42:05.253Z,12.89
2022-09-16T19:44:36.777Z,12.79
2022-09-16T19:47:07.057Z,12.70
2022-09-16T19:49:39.730Z,12.83
2022-09-16T19:52:08.662Z,12.77
2022-09-16T19:54:39.832Z,12.73
2022-09-16T19:57:12.023Z,12.47
2022-09-16T19:59:40.815Z,12.55
2022-09-16T20:02:11.648Z,12.63
2022-09-16T20:04:40.119Z,12.70
2022-09-16T20:07:15.531Z,12.70
2022-09-16T20:09:47.073Z,12.69
2022-09-16T20:12:19.175Z,12.63
2022-09-16T20:14:47.836Z,12.68
2022-09-16T20:17:17.906Z,12.55
2022-09-16T20:19:46.396Z,12.61
2022-09-16T20:22:15.898Z,12.55
2022-09-16T20:24:53.821Z,12.64
2022-09-16T20:27:37.335Z,12.48
2022-09-16T20:30:07.544Z,12.39
2022-09-16T20:32:37.466Z,12.31
2022-09-16T20:35:07.114Z,12.46
2022-09-16T20:37:39.165Z,12.42
2022-09-16T20:40:09.836Z,12.41
2022-09-16T20:42:38.972Z,12.43
2022-09-16T20:45:09.058Z,12.42
2022-09-16T20:47:39.669Z,12.40
2022-09-16T20:50:11.213Z,12.32
2022-09-16T20:52:39.643Z,12.18
2022-09-16T20:55:17.078Z,12.27
2022-09-16T20:57:46.616Z,12.28
2022-09-16T21:00:18.241Z,12.36
2022-09-16T21:02:53.819Z,12.33
2022-09-16T21:05:25.401Z,12.35
2022-09-16T21:07:58.701Z,12.30
2022-09-16T21:10:29.976Z,12.28
2022-09-16T21:13:02.353Z,12.32
2022-09-16T21:15:33.565Z,12.26
2022-09-16T21:18:05.091Z,12.45
2022-09-16T21:20:33.885Z,12.23
2022-09-16T21:23:06.746Z,12.15
2022-09-16T21:25:37.990Z,12.16
2022-09-16T21:28:08.853Z,12.28
2022-09-16T21:30:39.863Z,12.30
2022-09-16T21:33:15.110Z,12.38
2022-09-16T21:35:56.998Z,12.20
2022-09-16T21:38:29.627Z,12.02
2022-09-16T21:41:00.610Z,12.14
2022-09-16T21:43:32.809Z,12.24
2022-09-16T21:46:02.877Z,12.10
2022-09-16T21:48:37.738Z,12.02
2022-09-16T21:51:17.413Z,12.20
2022-09-16T21:53:48.365Z,12.16
2022-09-16T21:56:20.080Z,11.91
2022-09-16T21:58:51.192Z,11.98
2022-09-16T22:01:23.649Z,12.02
2022-09-16T22:04:01.582Z,12.04
2022-09-16T22:06:31.506Z,11.97
2022-09-16T22:09:02.629Z,11.88
2022-09-16T22:11:33.284Z,11.86
2022-09-16T22:14:06.298Z,11.88
2022-09-16T22:16:38.314Z,11.84
2022-09-16T22:19:11.443Z,11.79
2022-09-16T22:21:46.232Z,11.86
2022-09-16T22:24:20.106Z,11.83
2022-09-16T22:27:03.973Z,11.69
2022-09-16T22:29:32.713Z,11.95
2022-09-16T22:32:04.221Z,11.85
2022-09-16T22:34:36.786Z,11.79
2022-09-16T22:37:09.503Z,11.70
2022-09-16T22:39:38.469Z,11.82
2022-09-16T22:42:09.787Z,11.77
2022-09-16T22:44:38.639Z,11.67
2022-09-16T22:47:07.880Z,11.82
2022-09-16T22:49:37.659Z,11.81
2022-09-16T22:52:06.158Z,11.67
2022-09-16T22:54:34.607Z,11.69
2022-09-16T22:57:03.016Z,11.60
2022-09-16T22:59:31.442Z,11.59
2022-09-16T23:01:59.899Z,11.64
2022-09-16T23:04:28.515Z,11.73
2022-09-16T23:06:58.313Z,11.60
2022-09-16T23:09:26.684Z,11.52
2022-09-16T23:11:55.052Z,11.56
2022-09-16T23:14:26.244Z,11.54
2022-09-16T23:16:55.482Z,11.56
2022-09-16T23:19:24.090Z,11.48
2022-09-16T23:21:52.408Z,11.55
2022-09-16T23:24:23.244Z,11.71
2022-09-16T23:26:51.671Z,11.58
2022-09-16T23:29:20.086Z,11.51
2022-09-16T23:31:48.543Z,11.52
2022-09-16T23:34:20.269Z,11.39
2022-09-16T23:36:49.143Z,11.42
2022-09-16T23:39:18.793Z,11.37
2022-09-16T23:41:51.290Z,11.42
2022-09-16T23:44:27.185Z,11.52
2022-09-16T23:46:55.628Z,11.40
2022-09-16T23:49:23.995Z,11.39
2022-09-16T23:51:52.319Z,11.35
2022-09-16T23:54:20.740Z,11.36
2022-09-16T23:56:50.441Z,11.28
2022-09-16T23:59:18.998Z,11.29
